Station Historical Data
Daily Summary for March 21, 2017 Units:  English    Metric   Both
Next Day »
Daily Weekly Monthly Yearly Custom
  High: Low: Average:
Temperature: 50.8 °F 42.5 °F 48.2 °F
Dew Point: 48.3 °F 40.1 °F 45.6 °F
Humidity: 92% 88% 91%
Wind Speed: 25.0mph 0.0mph 6.8mph
Wind Gust: 31.0mph - -
Wind- - SSE
Pressure: 30.04 in 29.89 in -
Precipitation: 0.00 in    
Historical Graphs
 
 
Tabular Data for March 21, 2017
Time Temperature Dew Point Pressure Wind Wind Speed Wind Gust Humidity Rainfall Rate (Hourly) solar Conditions
00:04 48.0 °F 45.2 °F 29.97 in SE 10.0 mph 18.0 mph 90% 0.10 in 0.00 W/m2
00:09 48.0 °F 45.2 °F 29.98 in SSE 12.0 mph 14.0 mph 90% 0.10 in 0.00 W/m2
00:14 48.0 °F 45.2 °F 29.98 in SE 5.0 mph 15.0 mph 90% 0.07 in 0.00 W/m2
00:19 48.0 °F 45.2 °F 29.98 in SE 18.0 mph 18.0 mph 90% 0.07 in 0.00 W/m2
00:24 48.0 °F 45.2 °F 29.98 in SSE 9.0 mph 19.0 mph 90% 0.07 in 0.00 W/m2
00:29 48.0 °F 45.2 °F 29.97 in SSE 7.0 mph 17.0 mph 90% 0.13 in 0.00 W/m2
00:34 48.0 °F 45.2 °F 29.97 in ESE 9.0 mph 21.0 mph 90% 0.19 in 0.00 W/m2
00:39 48.1 °F 45.3 °F 29.97 in SSE 13.0 mph 16.0 mph 90% 0.17 in 0.00 W/m2
00:44 48.1 °F 45.3 °F 29.96 in ESE 13.0 mph 25.0 mph 90% 0.13 in 0.00 W/m2
00:49 48.1 °F 45.3 °F 29.96 in SE 5.0 mph 24.0 mph 90% 0.09 in 0.00 W/m2
00:54 48.1 °F 45.3 °F 29.96 in SE 18.0 mph 31.0 mph 90% 0.05 in 0.00 W/m2
00:59 48.2 °F 45.4 °F 29.96 in SE 12.0 mph 25.0 mph 90% 0.04 in 0.00 W/m2
01:04 48.2 °F 45.4 °F 29.96 in SE 9.0 mph 22.0 mph 90% 0.04 in 0.00 W/m2
01:09 48.2 °F 45.4 °F 29.96 in ESE 8.0 mph 18.0 mph 90% 0.07 in 0.00 W/m2
01:14 48.3 °F 45.5 °F 29.95 in SE 8.0 mph 21.0 mph 90% 0.07 in 0.00 W/m2
01:19 48.3 °F 45.5 °F 29.95 in SE 7.0 mph 18.0 mph 90% 0.07 in 0.00 W/m2
01:24 48.3 °F 45.5 °F 29.95 in SE 5.0 mph 22.0 mph 90% 0.06 in 0.00 W/m2
01:29 48.2 °F 45.4 °F 29.94 in ESE 8.0 mph 18.0 mph 90% 0.05 in 0.00 W/m2
01:34 48.2 °F 45.4 °F 29.95 in SE 17.0 mph 21.0 mph 90% 0.05 in 0.00 W/m2
01:39 48.2 °F 45.4 °F 29.95 in SE 14.0 mph 17.0 mph 90% 0.05 in 0.00 W/m2
01:44 48.2 °F 45.4 °F 29.95 in ESE 12.0 mph 17.0 mph 90% 0.14 in 0.00 W/m2
01:45 48.2 °F 45.4 °F 29.95 in ESE 24.0 mph 24.0 mph 90% 0.14 in 0.00 W/m2
01:50 48.3 °F 45.5 °F 29.95 in SSE 15.0 mph 23.0 mph 90% 0.19 in 0.00 W/m2
01:55 48.3 °F 45.5 °F 29.95 in SE 8.0 mph 15.0 mph 90% 0.19 in 0.00 W/m2
02:00 48.4 °F 45.9 °F 29.95 in SE 5.0 mph 19.0 mph 91% 0.34 in 0.00 W/m2
02:05 48.4 °F 45.9 °F 29.95 in SE 14.0 mph 14.0 mph 91% 0.17 in 0.00 W/m2
02:10 48.4 °F 45.9 °F 29.95 in SE 14.0 mph 22.0 mph 91% 0.29 in 0.00 W/m2
02:15 48.4 °F 45.9 °F 29.94 in SE 14.0 mph 20.0 mph 91% 0.22 in 0.00 W/m2
02:20 48.4 °F 45.9 °F 29.94 in ESE 18.0 mph 20.0 mph 91% 0.14 in 0.00 W/m2
02:25 48.4 °F 45.9 °F 29.94 in ESE 14.0 mph 19.0 mph 91% 0.08 in 0.00 W/m2
02:30 48.4 °F 45.9 °F 29.93 in SE 13.0 mph 16.0 mph 91% 0.08 in 0.00 W/m2
02:35 48.4 °F 45.9 °F 29.93 in SE 7.0 mph 21.0 mph 91% 0.05 in 0.00 W/m2
02:40 48.3 °F 45.8 °F 29.93 in SE 14.0 mph 19.0 mph 91% 0.04 in 0.00 W/m2
02:45 48.3 °F 45.5 °F 29.92 in South 10.0 mph 17.0 mph 90% 0.00 in 0.00 W/m2
02:50 48.3 °F 45.5 °F 29.93 in ESE 7.0 mph 16.0 mph 90% 0.00 in 0.00 W/m2
02:55 48.3 °F 45.5 °F 29.92 in SSE 5.0 mph 16.0 mph 90% 0.00 in 0.00 W/m2
03:00 48.2 °F 45.4 °F 29.91 in ESE 18.0 mph 18.0 mph 90% 0.28 in 0.00 W/m2
03:05 48.2 °F 45.4 °F 29.92 in SE 1.0 mph 18.0 mph 90% 0.09 in 0.00 W/m2
03:10 48.2 °F 45.4 °F 29.92 in ESE 13.0 mph 15.0 mph 90% 0.05 in 0.00 W/m2
03:15 48.2 °F 45.4 °F 29.91 in SSE 13.0 mph 15.0 mph 90% 0.33 in 0.00 W/m2
03:20 48.2 °F 45.4 °F 29.91 in SSE 8.0 mph 19.0 mph 90% 0.22 in 0.00 W/m2
03:30 48.2 °F 45.4 °F 29.91 in Calm   19.0 mph 90% 0.18 in 0.00 W/m2
03:35 48.2 °F 45.4 °F 29.91 in SE 7.0 mph 23.0 mph 90% 0.14 in 0.00 W/m2
03:40 48.2 °F 45.4 °F 29.91 in South 11.0 mph 17.0 mph 90% 0.14 in 0.00 W/m2
03:45 48.3 °F 45.5 °F 29.92 in SSW 10.0 mph 17.0 mph 90% 0.24 in 0.00 W/m2
03:50 48.3 °F 45.5 °F 29.92 in SSE 10.0 mph 16.0 mph 90% 0.21 in 0.00 W/m2
03:55 48.3 °F 45.8 °F 29.93 in SSE 12.0 mph 13.0 mph 91% 0.30 in 0.00 W/m2
04:00 48.4 °F 45.9 °F 29.92 in SSE 7.0 mph 17.0 mph 91% 0.35 in 0.00 W/m2
04:05 48.5 °F 46.0 °F 29.91 in Calm   20.0 mph 91% 0.29 in 0.00 W/m2
04:10 48.5 °F 46.0 °F 29.91 in SSE 6.0 mph 17.0 mph 91% 0.34 in 0.00 W/m2
04:15 48.6 °F 46.1 °F 29.91 in SSW 2.0 mph 14.0 mph 91% 0.21 in 0.00 W/m2
04:20 48.6 °F 46.1 °F 29.91 in SW 2.0 mph 12.0 mph 91% 1.11 in 0.00 W/m2
04:25 48.7 °F 46.2 °F 29.90 in South 11.0 mph 19.0 mph 91% 0.15 in 0.00 W/m2
04:30 48.8 °F 46.3 °F 29.90 in SSE 14.0 mph 20.0 mph 91% 0.13 in 0.00 W/m2
04:35 48.9 °F 46.4 °F 29.90 in SE 5.0 mph 19.0 mph 91% 0.07 in 0.00 W/m2
04:40 49.0 °F 46.5 °F 29.90 in South 11.0 mph 25.0 mph 91% 0.13 in 0.00 W/m2
04:45 49.0 °F 46.5 °F 29.89 in South 18.0 mph 18.0 mph 91% 0.27 in 0.00 W/m2
04:50 49.2 °F 46.7 °F 29.89 in SSE 8.0 mph 18.0 mph 91% 0.14 in 0.00 W/m2
04:55 49.2 °F 46.7 °F 29.89 in SE 8.0 mph 14.0 mph 91% 0.06 in 0.00 W/m2
05:00 49.3 °F 46.8 °F 29.89 in SSE 11.0 mph 21.0 mph 91% 0.04 in 0.00 W/m2
05:05 49.3 °F 46.8 °F 29.90 in South 11.0 mph 20.0 mph 91% 0.04 in 0.00 W/m2
05:06 49.4 °F 46.9 °F 29.90 in South 11.0 mph 11.0 mph 91% 0.04 in 0.00 W/m2
05:11 49.4 °F 46.9 °F 29.89 in South 13.0 mph 17.0 mph 91% 0.04 in 0.00 W/m2
05:16 49.5 °F 47.0 °F 29.90 in SSE 2.0 mph 4.0 mph 91% 0.04 in 0.00 W/m2
05:21 49.6 °F 47.1 °F 29.89 in SSE 14.0 mph 14.0 mph 91% 0.00 in 0.00 W/m2
05:26 49.6 °F 47.1 °F 29.90 in SSE 10.0 mph 16.0 mph 91% 0.00 in 0.00 W/m2
05:31 49.6 °F 47.1 °F 29.90 in SE 14.0 mph 14.0 mph 91% 0.10 in 0.00 W/m2
05:36 49.6 °F 47.1 °F 29.90 in South 17.0 mph 17.0 mph 91% 0.07 in 0.00 W/m2
05:41 49.6 °F 47.1 °F 29.90 in South 18.0 mph 18.0 mph 91% 0.04 in 0.00 W/m2
05:46 49.6 °F 47.1 °F 29.90 in SSE 20.0 mph 20.0 mph 91% 0.00 in 0.00 W/m2
05:51 49.6 °F 47.1 °F 29.90 in SSW 9.0 mph 14.0 mph 91% 0.00 in 0.00 W/m2
05:56 49.6 °F 47.1 °F 29.90 in South 25.0 mph 25.0 mph 91% 0.00 in 0.00 W/m2
06:01 49.7 °F 47.2 °F 29.90 in South 19.0 mph 26.0 mph 91% 0.00 in 0.00 W/m2
06:06 49.7 °F 47.2 °F 29.90 in South 12.0 mph 12.0 mph 91% 0.00 in 0.00 W/m2
06:11 49.7 °F 47.2 °F 29.90 in SSE 22.0 mph 23.0 mph 91% 0.00 in 0.00 W/m2
06:16 49.8 °F 47.3 °F 29.90 in South 13.0 mph 13.0 mph 91% 0.00 in 0.00 W/m2
06:21 49.8 °F 47.3 °F 29.90 in SSW 10.0 mph 18.0 mph 91% 0.00 in 0.00 W/m2
06:26 49.9 °F 47.4 °F 29.90 in SSE 18.0 mph 19.0 mph 91% 0.00 in 0.00 W/m2
06:31 49.9 °F 47.4 °F 29.90 in South 8.0 mph 10.0 mph 91% 0.00 in 0.00 W/m2
06:36 49.9 °F 47.4 °F 29.90 in SSW 14.0 mph 17.0 mph 91% 0.00 in 0.00 W/m2
06:41 49.9 °F 47.4 °F 29.90 in South 18.0 mph 20.0 mph 91% 0.00 in 0.00 W/m2
06:46 49.9 °F 47.4 °F 29.90 in South 10.0 mph 17.0 mph 91% 0.00 in 0.00 W/m2
06:51 50.0 °F 47.5 °F 29.90 in SSE 8.0 mph 21.0 mph 91% 0.00 in 0.00 W/m2
06:56 50.0 °F 47.5 °F 29.90 in SSE 8.0 mph 16.0 mph 91% 0.00 in 0.00 W/m2
07:01 50.0 °F 47.5 °F 29.91 in South 10.0 mph 20.0 mph 91% 0.00 in 0.00 W/m2
07:06 50.1 °F 47.6 °F 29.91 in South 19.0 mph 22.0 mph 91% 0.00 in 0.00 W/m2
07:12 50.2 °F 47.7 °F 29.92 in South 13.0 mph 17.0 mph 91% 0.00 in 0.00 W/m2
07:17 50.2 °F 47.7 °F 29.92 in SE 15.0 mph 22.0 mph 91% 0.00 in 0.00 W/m2
07:22 50.3 °F 47.8 °F 29.92 in SSW 18.0 mph 24.0 mph 91% 0.00 in 0.00 W/m2
07:27 50.1 °F 47.6 °F 29.92 in South 10.0 mph 12.0 mph 91% 0.00 in 0.00 W/m2
07:32 50.1 °F 47.6 °F 29.92 in SSE 7.0 mph 9.0 mph 91% 0.00 in 0.00 W/m2
07:37 50.0 °F 47.5 °F 29.92 in South 11.0 mph 15.0 mph 91% 0.00 in 0.00 W/m2
07:42 49.9 °F 47.4 °F 29.92 in SSE 12.0 mph 13.0 mph 91% 0.00 in 11.00 W/m2
07:47 49.9 °F 47.4 °F 29.92 in Calm   17.0 mph 91% 0.00 in 5.00 W/m2
07:52 49.9 °F 47.4 °F 29.92 in South 19.0 mph 19.0 mph 91% 0.33 in 11.00 W/m2
07:57 49.9 °F 47.4 °F 29.92 in South 9.0 mph 23.0 mph 91% 0.09 in 9.00 W/m2
08:02 50.0 °F 47.5 °F 29.92 in South 24.0 mph 24.0 mph 91% 0.06 in 7.00 W/m2
08:07 50.1 °F 47.6 °F 29.92 in South 12.0 mph 29.0 mph 91% 0.06 in 11.00 W/m2
08:12 50.1 °F 47.6 °F 29.91 in South 7.0 mph 21.0 mph 91% 0.08 in 9.00 W/m2
08:17 50.2 °F 47.7 °F 29.92 in SSE 4.0 mph 13.0 mph 91% 0.06 in 5.00 W/m2
08:22 50.3 °F 47.8 °F 29.91 in South 17.0 mph 17.0 mph 91% 0.04 in 30.00 W/m2
08:27 50.3 °F 47.8 °F 29.91 in South 16.0 mph 16.0 mph 91% 0.00 in 16.00 W/m2
08:32 50.3 °F 47.8 °F 29.91 in South 12.0 mph 20.0 mph 91% 0.40 in 11.00 W/m2
08:37 50.3 °F 47.8 °F 29.91 in SW 14.0 mph 25.0 mph 91% 0.09 in 18.00 W/m2
08:42 50.3 °F 47.8 °F 29.91 in South 8.0 mph 12.0 mph 91% 0.05 in 18.00 W/m2
08:47 50.4 °F 47.9 °F 29.91 in South 12.0 mph 21.0 mph 91% 0.04 in 23.00 W/m2
08:52 50.4 °F 47.9 °F 29.91 in South 10.0 mph 21.0 mph 91% 0.00 in 18.00 W/m2
08:57 50.4 °F 47.9 °F 29.91 in South 12.0 mph 14.0 mph 91% 0.00 in 23.00 W/m2
09:02 50.4 °F 47.9 °F 29.92 in SSE 9.0 mph 20.0 mph 91% 0.00 in 30.00 W/m2
09:07 50.4 °F 47.9 °F 29.92 in SSE 11.0 mph 18.0 mph 91% 0.00 in 49.00 W/m2
09:12 50.4 °F 47.9 °F 29.92 in South 5.0 mph 15.0 mph 91% 0.00 in 83.00 W/m2
09:17 50.5 °F 48.0 °F 29.92 in SE 16.0 mph 17.0 mph 91% 0.00 in 35.00 W/m2
09:22 50.5 °F 48.0 °F 29.92 in South 11.0 mph 22.0 mph 91% 0.00 in 42.00 W/m2
09:27 50.5 °F 48.0 °F 29.92 in SSE 10.0 mph 13.0 mph 91% 0.00 in 35.00 W/m2
09:32 50.5 °F 48.0 °F 29.92 in SE 2.0 mph 16.0 mph 91% 0.00 in 23.00 W/m2
09:37 50.5 °F 48.0 °F 29.92 in South 12.0 mph 12.0 mph 91% 0.00 in 30.00 W/m2
09:42 50.4 °F 47.9 °F 29.92 in SSE 9.0 mph 18.0 mph 91% 0.07 in 65.00 W/m2
09:47 50.4 °F 47.9 °F 29.92 in SE 13.0 mph 15.0 mph 91% 0.25 in 37.00 W/m2
09:52 50.4 °F 47.9 °F 29.92 in SSE 5.0 mph 17.0 mph 91% 0.24 in 62.00 W/m2
09:57 50.4 °F 47.9 °F 29.92 in SSE 13.0 mph 24.0 mph 91% 0.17 in 42.00 W/m2
10:02 50.4 °F 47.9 °F 29.92 in SSE 20.0 mph 20.0 mph 91% 0.17 in 95.00 W/m2
10:07 50.4 °F 47.9 °F 29.91 in SSE 5.0 mph 19.0 mph 91% 0.07 in 72.00 W/m2
10:12 50.4 °F 47.9 °F 29.92 in SSE 19.0 mph 19.0 mph 91% 0.07 in 42.00 W/m2
10:17 50.4 °F 47.9 °F 29.92 in SSE 16.0 mph 18.0 mph 91% 0.09 in 44.00 W/m2
10:22 50.4 °F 47.9 °F 29.92 in SSE 13.0 mph 18.0 mph 91% 0.21 in 46.00 W/m2
10:27 50.4 °F 47.9 °F 29.91 in SE 11.0 mph 17.0 mph 91% 0.09 in 114.00 W/m2
10:32 50.4 °F 47.9 °F 29.92 in SE 20.0 mph 22.0 mph 91% 0.05 in 74.00 W/m2
10:37 50.5 °F 48.0 °F 29.92 in South 8.0 mph 18.0 mph 91% 0.04 in 135.00 W/m2
10:42 50.5 °F 48.0 °F 29.92 in SSE 14.0 mph 26.0 mph 91% 0.00 in 58.00 W/m2
10:47 50.6 °F 48.1 °F 29.91 in SSE 13.0 mph 23.0 mph 91% 0.00 in 86.00 W/m2
10:52 50.6 °F 48.1 °F 29.92 in South 8.0 mph 16.0 mph 91% 0.00 in 54.00 W/m2
10:57 50.6 °F 48.1 °F 29.92 in SSW 9.0 mph 18.0 mph 91% 0.15 in 35.00 W/m2
11:02 50.6 °F 48.1 °F 29.92 in South 6.0 mph 15.0 mph 91% 0.12 in 44.00 W/m2
11:03 50.6 °F 48.1 °F 29.92 in SSW 4.0 mph 15.0 mph 91% 0.12 in 47.00 W/m2
11:08 50.6 °F 48.1 °F 29.92 in SSW 13.0 mph 16.0 mph 91% 0.06 in 46.00 W/m2
11:13 50.7 °F 48.2 °F 29.93 in SSW 8.0 mph 18.0 mph 91% 0.04 in 32.00 W/m2
11:18 50.6 °F 48.1 °F 29.92 in SSE 10.0 mph 20.0 mph 91% 0.00 in 81.00 W/m2
11:23 50.7 °F 48.2 °F 29.92 in SW 10.0 mph 15.0 mph 91% 0.00 in 51.00 W/m2
11:28 50.7 °F 48.2 °F 29.91 in SSE 6.0 mph 15.0 mph 91% 0.39 in 35.00 W/m2
11:33 50.7 °F 48.2 °F 29.92 in SE 13.0 mph 15.0 mph 91% 0.36 in 32.00 W/m2
11:38 50.7 °F 48.2 °F 29.93 in SSE 12.0 mph 18.0 mph 91% 0.57 in 46.00 W/m2
11:43 50.8 °F 48.3 °F 29.92 in SSE 4.0 mph 26.0 mph 91% 0.13 in 135.00 W/m2
11:48 50.8 °F 48.3 °F 29.92 in South 12.0 mph 19.0 mph 91% 0.06 in 53.00 W/m2
11:53 50.8 °F 48.3 °F 29.92 in SSW 10.0 mph 24.0 mph 91% 0.04 in 39.00 W/m2
11:58 50.8 °F 48.3 °F 29.92 in South 4.0 mph 26.0 mph 91% 0.43 in 18.00 W/m2
12:03 50.8 °F 48.3 °F 29.91 in Calm   23.0 mph 91% 0.40 in 21.00 W/m2
12:08 50.7 °F 48.2 °F 29.91 in SSE 20.0 mph 25.0 mph 91% 0.12 in 11.00 W/m2
12:13 50.7 °F 48.2 °F 29.91 in SE 15.0 mph 21.0 mph 91% 0.40 in 16.00 W/m2
12:18 50.6 °F 48.1 °F 29.92 in SSW 13.0 mph 23.0 mph 91% 0.52 in 14.00 W/m2
12:23 50.7 °F 48.2 °F 29.93 in SW 5.0 mph 17.0 mph 91% 2.09 in 12.00 W/m2
12:28 50.6 °F 48.1 °F 29.94 in WSW 15.0 mph 23.0 mph 91% 0.33 in 16.00 W/m2
12:33 50.4 °F 47.9 °F 29.95 in SSE 10.0 mph 20.0 mph 91% 0.16 in 12.00 W/m2
12:38 50.0 °F 47.5 °F 29.95 in South 9.0 mph 13.0 mph 91% 0.22 in 35.00 W/m2
12:43 49.5 °F 47.0 °F 29.94 in SSE 11.0 mph 15.0 mph 91% 0.33 in 12.00 W/m2
12:48 49.0 °F 46.5 °F 29.94 in SSW 15.0 mph 20.0 mph 91% 0.22 in 9.00 W/m2
12:53 48.7 °F 46.2 °F 29.95 in SW 20.0 mph 23.0 mph 91% 0.25 in 12.00 W/m2
12:58 48.6 °F 46.1 °F 29.95 in SSW 4.0 mph 14.0 mph 91% 1.17 in 9.00 W/m2
13:03 48.6 °F 46.1 °F 29.97 in WSW 13.0 mph 21.0 mph 91% 1.48 in 16.00 W/m2
13:08 48.6 °F 46.1 °F 29.97 in SSW 9.0 mph 23.0 mph 91% 0.35 in 84.00 W/m2
13:13 48.2 °F 45.7 °F 29.96 in WSW 7.0 mph 24.0 mph 91% 0.41 in 25.00 W/m2
13:18 47.9 °F 45.4 °F 29.96 in SW 5.0 mph 24.0 mph 91% 1.02 in 35.00 W/m2
13:23 47.8 °F 45.3 °F 29.96 in SW 13.0 mph 19.0 mph 91% 0.43 in 54.00 W/m2
13:28 47.7 °F 45.2 °F 29.96 in West 8.0 mph 23.0 mph 91% 0.75 in 49.00 W/m2
13:33 47.6 °F 45.1 °F 29.96 in Calm   7.0 mph 91% 0.27 in 53.00 W/m2
13:38 47.6 °F 45.1 °F 29.96 in Calm   12.0 mph 91% 0.10 in 53.00 W/m2
13:43 47.5 °F 45.0 °F 29.96 in SW 7.0 mph 10.0 mph 91% 0.07 in 32.00 W/m2
13:48 47.6 °F 45.1 °F 29.96 in Calm   7.0 mph 91% 0.07 in 23.00 W/m2
13:53 47.7 °F 45.2 °F 29.97 in SSW 10.0 mph 12.0 mph 91% 0.05 in 26.00 W/m2
13:58 47.8 °F 45.3 °F 29.97 in Calm   10.0 mph 91% 0.00 in 42.00 W/m2
14:03 47.9 °F 45.4 °F 29.96 in WSW 3.0 mph 8.0 mph 91% 0.00 in 42.00 W/m2
14:08 48.0 °F 45.5 °F 29.97 in Calm   5.0 mph 91% 0.00 in 97.00 W/m2
14:13 48.1 °F 45.6 °F 29.97 in SW 6.0 mph 8.0 mph 91% 0.00 in 216.00 W/m2
14:19 48.2 °F 45.7 °F 29.97 in Calm   9.0 mph 91% 0.00 in 364.00 W/m2
14:23 48.3 °F 45.8 °F 29.97 in SSW 4.0 mph 11.0 mph 91% 0.00 in 455.00 W/m2
14:29 48.4 °F 45.9 °F 29.97 in Calm   1.0 mph 91% 0.00 in 422.00 W/m2
14:34 48.7 °F 46.2 °F 29.97 in West 7.0 mph 8.0 mph 91% 0.00 in 262.00 W/m2
14:39 48.9 °F 46.4 °F 29.98 in SW 11.0 mph 11.0 mph 91% 0.00 in 309.00 W/m2
14:44 48.6 °F 46.1 °F 29.98 in Calm   6.0 mph 91% 0.00 in 362.00 W/m2
14:49 48.6 °F 46.1 °F 29.98 in Calm   9.0 mph 91% 0.00 in 362.00 W/m2
14:54 48.8 °F 46.3 °F 29.98 in Calm   11.0 mph 91% 0.00 in 874.00 W/m2
14:59 48.6 °F 46.1 °F 29.98 in Calm   8.0 mph 91% 0.00 in 749.00 W/m2
15:04 48.8 °F 46.3 °F 29.98 in SW 2.0 mph 8.0 mph 91% 0.00 in 756.00 W/m2
15:09 49.0 °F 46.5 °F 29.99 in South 2.0 mph 11.0 mph 91% 0.00 in 729.00 W/m2
15:14 49.2 °F 46.7 °F 29.99 in South 6.0 mph 10.0 mph 91% 0.00 in 745.00 W/m2
15:19 49.3 °F 46.8 °F 29.99 in WSW 5.0 mph 9.0 mph 91% 0.00 in 761.00 W/m2
15:24 49.4 °F 46.9 °F 29.99 in Calm   8.0 mph 91% 0.00 in 221.00 W/m2
15:29 49.7 °F 47.2 °F 29.99 in Calm   6.0 mph 91% 0.00 in 749.00 W/m2
15:34 49.7 °F 47.2 °F 29.99 in Calm   11.0 mph 91% 0.00 in 722.00 W/m2
15:39 49.7 °F 47.2 °F 29.99 in Calm   9.0 mph 91% 0.00 in 121.00 W/m2
15:44 49.7 °F 47.2 °F 29.99 in Calm     91% 0.00 in 241.00 W/m2
15:49 49.6 °F 47.1 °F 29.99 in Calm     91% 0.00 in 306.00 W/m2
15:54 49.6 °F 47.1 °F 29.99 in South 6.0 mph 8.0 mph 91% 0.00 in 900.00 W/m2
15:59 49.5 °F 47.0 °F 29.99 in South 9.0 mph 9.0 mph 91% 0.00 in 195.00 W/m2
16:04 49.5 °F 47.0 °F 30.00 in South 1.0 mph 11.0 mph 91% 0.00 in 172.00 W/m2
16:09 49.4 °F 47.2 °F 30.00 in Calm   7.0 mph 92% 0.00 in 137.00 W/m2
16:14 49.4 °F 46.9 °F 30.00 in South 6.0 mph 8.0 mph 91% 0.00 in 142.00 W/m2
16:19 49.3 °F 46.8 °F 30.00 in Calm   1.0 mph 91% 0.00 in 120.00 W/m2
16:25 49.4 °F 46.9 °F 30.00 in Calm     91% 0.00 in 146.00 W/m2
16:30 49.4 °F 46.9 °F 30.00 in Calm   1.0 mph 91% 0.00 in 200.00 W/m2
16:35 49.5 °F 47.0 °F 29.99 in Calm     91% 0.00 in 529.00 W/m2
16:40 49.5 °F 47.0 °F 29.99 in Calm   11.0 mph 91% 0.00 in 517.00 W/m2
16:45 49.2 °F 46.7 °F 29.99 in SSW 5.0 mph 12.0 mph 91% 0.00 in 490.00 W/m2
16:50 49.1 °F 46.6 °F 29.99 in Calm   9.0 mph 91% 0.00 in 76.00 W/m2
16:55 49.1 °F 46.6 °F 29.98 in South 1.0 mph 7.0 mph 91% 0.00 in 79.00 W/m2
17:00 49.1 °F 46.3 °F 29.98 in SE 6.0 mph 10.0 mph 90% 0.00 in 422.00 W/m2
17:05 49.1 °F 46.3 °F 29.98 in Calm   10.0 mph 90% 0.00 in 410.00 W/m2
17:10 49.1 °F 45.7 °F 29.98 in Calm   9.0 mph 88% 0.00 in 420.00 W/m2
17:15 49.3 °F 46.2 °F 29.98 in Calm   1.0 mph 89% 0.00 in 399.00 W/m2
17:20 49.3 °F 46.2 °F 29.98 in Calm   5.0 mph 89% 0.00 in 90.00 W/m2
17:25 49.3 °F 46.2 °F 29.99 in Calm   8.0 mph 89% 0.00 in 105.00 W/m2
17:30 49.1 °F 46.0 °F 29.99 in Calm   1.0 mph 89% 0.00 in 250.00 W/m2
17:35 49.0 °F 45.9 °F 29.99 in SSE 9.0 mph 9.0 mph 89% 0.00 in 90.00 W/m2
17:40 49.0 °F 45.9 °F 29.99 in SSE 1.0 mph 7.0 mph 89% 0.00 in 325.00 W/m2
17:45 48.9 °F 45.8 °F 29.99 in Calm   1.0 mph 89% 0.00 in 127.00 W/m2
17:50 48.8 °F 45.7 °F 30.00 in Calm   1.0 mph 89% 0.00 in 281.00 W/m2
17:55 48.8 °F 45.7 °F 29.99 in SSE 7.0 mph 8.0 mph 89% 0.00 in 295.00 W/m2
18:00 48.7 °F 45.9 °F 29.99 in SSE 1.0 mph 8.0 mph 90% 0.00 in 246.00 W/m2
18:05 48.8 °F 46.0 °F 29.99 in Calm   7.0 mph 90% 0.00 in 232.00 W/m2
18:10 48.8 °F 46.0 °F 29.99 in South 1.0 mph 7.0 mph 90% 0.00 in 169.00 W/m2
18:15 48.8 °F 46.0 °F 29.99 in Calm   8.0 mph 90% 0.00 in 141.00 W/m2
18:25 48.6 °F 45.5 °F 29.99 in Calm   6.0 mph 89% 0.00 in 109.00 W/m2
18:30 48.5 °F 45.4 °F 30.00 in Calm     89% 0.00 in 86.00 W/m2
18:35 48.3 °F 45.2 °F 29.99 in Calm   1.0 mph 89% 0.00 in 39.00 W/m2
18:40 48.1 °F 44.7 °F 30.00 in Calm     88% 0.00 in 46.00 W/m2
18:45 47.9 °F 44.8 °F 29.99 in Calm   1.0 mph 89% 0.00 in 40.00 W/m2
18:50 47.7 °F 44.6 °F 29.99 in Calm     89% 0.00 in 25.00 W/m2
18:55 47.5 °F 44.4 °F 29.99 in Calm     89% 0.00 in 21.00 W/m2
19:00 47.3 °F 44.5 °F 29.99 in Calm     90% 0.00 in 18.00 W/m2
19:05 47.1 °F 44.0 °F 29.99 in Calm     89% 0.00 in 12.00 W/m2
19:11 46.9 °F 44.1 °F 29.99 in Calm     90% 0.00 in 9.00 W/m2
19:16 46.6 °F 43.8 °F 29.99 in Calm     90% 0.00 in 5.00 W/m2
19:21 46.4 °F 43.6 °F 29.99 in Calm     90% 0.00 in 0.00 W/m2
19:26 46.1 °F 43.3 °F 30.00 in Calm     90% 0.00 in 0.00 W/m2
19:31 45.8 °F 43.0 °F 30.00 in Calm     90% 0.00 in 0.00 W/m2
19:36 45.6 °F 42.8 °F 30.00 in Calm     90% 0.00 in 0.00 W/m2
19:41 45.4 °F 42.6 °F 30.00 in Calm     90% 0.00 in 0.00 W/m2
19:46 45.2 °F 42.5 °F 30.00 in Calm     90% 0.00 in 0.00 W/m2
19:51 45.0 °F 42.2 °F 30.01 in Calm     90% 0.00 in 0.00 W/m2
19:56 44.8 °F 42.0 °F 30.01 in Calm     90% 0.00 in 0.00 W/m2
20:01 44.7 °F 42.0 °F 30.01 in Calm     90% 0.00 in 0.00 W/m2
20:06 44.5 °F 42.0 °F 30.01 in Calm     91% 0.00 in 0.00 W/m2
20:11 44.4 °F 41.7 °F 30.02 in Calm     90% 0.00 in 0.00 W/m2
20:16 44.3 °F 41.8 °F 30.02 in Calm     91% 0.00 in 0.00 W/m2
20:21 44.2 °F 41.7 °F 30.02 in Calm     91% 0.00 in 0.00 W/m2
20:26 44.2 °F 41.7 °F 30.02 in Calm     91% 0.00 in 0.00 W/m2
20:31 44.0 °F 41.5 °F 30.02 in Calm     91% 0.00 in 0.00 W/m2
20:36 44.1 °F 41.7 °F 30.03 in Calm     91% 0.00 in 0.00 W/m2
20:41 44.1 °F 41.7 °F 30.02 in Calm     91% 0.00 in 0.00 W/m2
20:46 44.0 °F 41.5 °F 30.03 in Calm     91% 0.00 in 0.00 W/m2
20:51 44.0 °F 41.5 °F 30.03 in Calm     91% 0.00 in 0.00 W/m2
20:56 44.0 °F 41.5 °F 30.03 in Calm     91% 0.00 in 0.00 W/m2
21:01 44.0 °F 41.5 °F 30.03 in Calm     91% 0.00 in 0.00 W/m2
21:06 44.1 °F 41.7 °F 30.03 in Calm     91% 0.00 in 0.00 W/m2
21:11 44.1 °F 41.7 °F 30.03 in East 1.0 mph 4.0 mph 91% 0.00 in 0.00 W/m2
21:16 44.1 °F 41.7 °F 30.03 in Calm   2.0 mph 91% 0.00 in 0.00 W/m2
21:21 44.1 °F 41.7 °F 30.03 in Calm   2.0 mph 91% 0.00 in 0.00 W/m2
21:26 44.1 °F 41.7 °F 30.03 in East 2.0 mph 2.0 mph 91% 0.00 in 0.00 W/m2
21:31 44.1 °F 41.7 °F 30.03 in Calm   2.0 mph 91% 0.00 in 0.00 W/m2
21:36 44.1 °F 41.7 °F 30.03 in East 1.0 mph 2.0 mph 91% 0.00 in 0.00 W/m2
21:41 44.1 °F 41.7 °F 30.03 in East 2.0 mph 2.0 mph 91% 0.00 in 0.00 W/m2
21:46 44.1 °F 41.7 °F 30.03 in East 2.0 mph 4.0 mph 91% 0.00 in 0.00 W/m2
21:51 44.0 °F 41.5 °F 30.03 in East 1.0 mph 2.0 mph 91% 0.00 in 0.00 W/m2
21:56 44.0 °F 41.5 °F 30.03 in Calm   2.0 mph 91% 0.00 in 0.00 W/m2
22:01 43.9 °F 41.5 °F 30.03 in Calm   2.0 mph 91% 0.00 in 0.00 W/m2
22:06 43.8 °F 41.3 °F 30.03 in East 2.0 mph 4.0 mph 91% 0.00 in 0.00 W/m2
22:11 43.8 °F 41.3 °F 30.03 in Calm   4.0 mph 91% 0.00 in 0.00 W/m2
22:16 43.7 °F 41.2 °F 30.03 in Calm   2.0 mph 91% 0.00 in 0.00 W/m2
22:21 43.6 °F 41.2 °F 30.04 in ESE 1.0 mph 4.0 mph 91% 0.00 in 0.00 W/m2
22:26 43.6 °F 41.2 °F 30.03 in Calm   5.0 mph 91% 0.00 in 0.00 W/m2
22:31 43.6 °F 41.2 °F 30.04 in ESE 1.0 mph 2.0 mph 91% 0.00 in 0.00 W/m2
22:36 43.6 °F 41.2 °F 30.04 in Calm   4.0 mph 91% 0.00 in 0.00 W/m2
22:41 43.5 °F 41.0 °F 30.04 in ESE 1.0 mph 4.0 mph 91% 0.00 in 0.00 W/m2
22:46 43.5 °F 41.0 °F 30.04 in ESE 1.0 mph 4.0 mph 91% 0.00 in 0.00 W/m2
22:51 43.5 °F 41.0 °F 30.04 in ESE 4.0 mph 6.0 mph 91% 0.00 in 0.00 W/m2
22:56 43.4 °F 41.0 °F 30.04 in Calm   5.0 mph 91% 0.00 in 0.00 W/m2
23:01 43.4 °F 41.0 °F 30.04 in Calm   2.0 mph 91% 0.00 in 0.00 W/m2
23:06 43.4 °F 41.0 °F 30.03 in Calm   4.0 mph 91% 0.00 in 0.00 W/m2
23:11 43.4 °F 41.0 °F 30.03 in Calm     91% 0.00 in 0.00 W/m2
23:16 43.3 °F 40.8 °F 30.04 in Calm     91% 0.00 in 0.00 W/m2
23:21 43.3 °F 40.8 °F 30.03 in Calm   2.0 mph 91% 0.00 in 0.00 W/m2
23:26 43.2 °F 40.8 °F 30.03 in Calm   6.0 mph 91% 0.00 in 0.00 W/m2
23:31 43.2 °F 40.8 °F 30.04 in Calm   5.0 mph 91% 0.00 in 0.00 W/m2
23:36 43.1 °F 40.7 °F 30.04 in ESE 2.0 mph 5.0 mph 91% 0.00 in 0.00 W/m2
23:41 43.0 °F 40.6 °F 30.04 in ESE 4.0 mph 6.0 mph 91% 0.00 in 0.00 W/m2
23:46 42.8 °F 40.4 °F 30.03 in Calm   7.0 mph 91% 0.00 in 0.00 W/m2
23:51 42.6 °F 40.2 °F 30.03 in Calm   6.0 mph 91% 0.00 in 0.00 W/m2
23:56 42.5 °F 40.1 °F 30.03 in Calm   5.0 mph 91% 0.00 in 0.00 W/m2
Foresthill Weather
 WU-history PHP script courtesy of   Juneau County Weather.
powered by Cumulus v1.9.3 (1059)
Ambient Weather VWS v14.00
Top Contact Website Map Copyright © 2007 - 2018 Foresthillweather.com Never base important decisions on this or any weather information obtained from the Internet